sensor_id;sensor_type;location;lat;lon;timestamp;pressure;altitude;pressure_sealevel;temperature;humidity
44663;BME280;30381;52.754;18.258;2023-03-26T00:01:27;99309.48;;;6.43;100.00
44663;BME280;30381;52.754;18.258;2023-03-26T00:03:56;99306.15;;;6.43;100.00
44663;BME280;30381;52.754;18.258;2023-03-26T00:06:26;99308.13;;;6.42;100.00
44663;BME280;30381;52.754;18.258;2023-03-26T00:08:56;99304.12;;;6.41;100.00
44663;BME280;30381;52.754;18.258;2023-03-26T00:11:25;99296.31;;;6.37;100.00
44663;BME280;30381;52.754;18.258;2023-03-26T00:13:55;99301.27;;;6.35;100.00
44663;BME280;30381;52.754;18.258;2023-03-26T00:16:33;99304.95;;;6.34;100.00
44663;BME280;30381;52.754;18.258;2023-03-26T00:19:02;99306.88;;;6.33;100.00
44663;BME280;30381;52.754;18.258;2023-03-26T00:21:30;99307.17;;;6.32;100.00
44663;BME280;30381;52.754;18.258;2023-03-26T00:24:10;99300.89;;;6.29;100.00
44663;BME280;30381;52.754;18.258;2023-03-26T00:26:42;99303.73;;;6.26;100.00
44663;BME280;30381;52.754;18.258;2023-03-26T00:29:26;99303.71;;;6.22;100.00
44663;BME280;30381;52.754;18.258;2023-03-26T00:31:53;99305.71;;;6.21;100.00
44663;BME280;30381;52.754;18.258;2023-03-26T00:34:20;99303.58;;;6.20;100.00
44663;BME280;30381;52.754;18.258;2023-03-26T00:36:57;99300.98;;;6.23;100.00
44663;BME280;30381;52.754;18.258;2023-03-26T00:39:28;99303.32;;;6.27;100.00
44663;BME280;30381;52.754;18.258;2023-03-26T00:42:04;99297.04;;;6.30;100.00
44663;BME280;30381;52.754;18.258;2023-03-26T00:44:41;99296.33;;;6.34;100.00
44663;BME280;30381;52.754;18.258;2023-03-26T00:47:10;99291.89;;;6.39;100.00
44663;BME280;30381;52.754;18.258;2023-03-26T00:49:38;99289.18;;;6.43;100.00
44663;BME280;30381;52.754;18.258;2023-03-26T00:52:05;99283.84;;;6.48;100.00
44663;BME280;30381;52.754;18.258;2023-03-26T00:54:36;99283.00;;;6.52;100.00
44663;BME280;30381;52.754;18.258;2023-03-26T00:57:04;99278.43;;;6.55;100.00
44663;BME280;30381;52.754;18.258;2023-03-26T00:59:35;99277.26;;;6.58;100.00
44663;BME280;30381;52.754;18.258;2023-03-26T01:02:01;99277.59;;;6.59;100.00
44663;BME280;30381;52.754;18.258;2023-03-26T01:04:32;99277.14;;;6.58;100.00
44663;BME280;30381;52.754;18.258;2023-03-26T01:07:10;99274.06;;;6.55;100.00
44663;BME280;30381;52.754;18.258;2023-03-26T01:09:41;99272.61;;;6.51;100.00
44663;BME280;30381;52.754;18.258;2023-03-26T01:12:13;99276.27;;;6.48;100.00
44663;BME280;30381;52.754;18.258;2023-03-26T01:14:52;99270.77;;;6.44;100.00
44663;BME280;30381;52.754;18.258;2023-03-26T01:17:19;99270.95;;;6.41;100.00
44663;BME280;30381;52.754;18.258;2023-03-26T01:19:53;99268.98;;;6.38;100.00
44663;BME280;30381;52.754;18.258;2023-03-26T01:22:27;99267.49;;;6.35;100.00
44663;BME280;30381;52.754;18.258;2023-03-26T01:24:54;99268.04;;;6.32;100.00
44663;BME280;30381;52.754;18.258;2023-03-26T01:30:30;99262.33;;;6.26;100.00
44663;BME280;30381;52.754;18.258;2023-03-26T01:33:05;99263.55;;;6.22;100.00
44663;BME280;30381;52.754;18.258;2023-03-26T01:44:18;99261.92;;;6.16;100.00
44663;BME280;30381;52.754;18.258;2023-03-26T01:46:53;99257.33;;;6.17;100.00
44663;BME280;30381;52.754;18.258;2023-03-26T01:49:26;99257.36;;;6.19;100.00
44663;BME280;30381;52.754;18.258;2023-03-26T01:51:55;99257.15;;;6.21;100.00
44663;BME280;30381;52.754;18.258;2023-03-26T01:54:26;99259.02;;;6.24;100.00
44663;BME280;30381;52.754;18.258;2023-03-26T01:57:26;99260.75;;;6.28;100.00
44663;BME280;30381;52.754;18.258;2023-03-26T02:02:44;99258.60;;;6.33;100.00
44663;BME280;30381;52.754;18.258;2023-03-26T02:05:24;99256.14;;;6.34;100.00
44663;BME280;30381;52.754;18.258;2023-03-26T02:08:22;99248.65;;;6.35;100.00
44663;BME280;30381;52.754;18.258;2023-03-26T02:10:57;99247.23;;;6.36;100.00
44663;BME280;30381;52.754;18.258;2023-03-26T02:13:26;99250.67;;;6.37;100.00
44663;BME280;30381;52.754;18.258;2023-03-26T02:15:55;99250.19;;;6.37;100.00
44663;BME280;30381;52.754;18.258;2023-03-26T02:18:23;99249.31;;;6.36;100.00
44663;BME280;30381;52.754;18.258;2023-03-26T02:20:51;99245.87;;;6.35;100.00
44663;BME280;30381;52.754;18.258;2023-03-26T02:23:21;99245.54;;;6.35;100.00
44663;BME280;30381;52.754;18.258;2023-03-26T02:25:48;99241.09;;;6.35;100.00
44663;BME280;30381;52.754;18.258;2023-03-26T02:28:15;99234.86;;;6.35;100.00
44663;BME280;30381;52.754;18.258;2023-03-26T02:30:42;99247.50;;;6.36;100.00
44663;BME280;30381;52.754;18.258;2023-03-26T02:33:11;99240.85;;;6.37;100.00
44663;BME280;30381;52.754;18.258;2023-03-26T02:35:41;99244.01;;;6.36;100.00
44663;BME280;30381;52.754;18.258;2023-03-26T02:38:12;99242.82;;;6.36;100.00
44663;BME280;30381;52.754;18.258;2023-03-26T02:40:40;99242.02;;;6.36;100.00
44663;BME280;30381;52.754;18.258;2023-03-26T02:43:07;99247.36;;;6.35;100.00
44663;BME280;30381;52.754;18.258;2023-03-26T02:45:34;99247.06;;;6.34;100.00
44663;BME280;30381;52.754;18.258;2023-03-26T02:48:01;99248.58;;;6.31;100.00
44663;BME280;30381;52.754;18.258;2023-03-26T02:50:28;99236.00;;;6.28;100.00
44663;BME280;30381;52.754;18.258;2023-03-26T02:52:58;99227.44;;;6.25;100.00
44663;BME280;30381;52.754;18.258;2023-03-26T02:55:25;99226.41;;;6.23;100.00
44663;BME280;30381;52.754;18.258;2023-03-26T02:57:52;99222.90;;;6.21;100.00
44663;BME280;30381;52.754;18.258;2023-03-26T03:00:19;99218.42;;;6.20;100.00
44663;BME280;30381;52.754;18.258;2023-03-26T03:02:48;99213.77;;;6.19;100.00
44663;BME280;30381;52.754;18.258;2023-03-26T03:05:15;99214.81;;;6.16;100.00
44663;BME280;30381;52.754;18.258;2023-03-26T03:07:45;99209.87;;;6.14;100.00
44663;BME280;30381;52.754;18.258;2023-03-26T03:10:13;99210.14;;;6.11;100.00
44663;BME280;30381;52.754;18.258;2023-03-26T03:12:41;99208.91;;;6.08;100.00
44663;BME280;30381;52.754;18.258;2023-03-26T03:15:09;99208.02;;;6.06;100.00
44663;BME280;30381;52.754;18.258;2023-03-26T03:17:37;99206.15;;;6.04;100.00
44663;BME280;30381;52.754;18.258;2023-03-26T03:20:04;99209.51;;;6.03;100.00
44663;BME280;30381;52.754;18.258;2023-03-26T03:22:36;99206.02;;;6.01;100.00
44663;BME280;30381;52.754;18.258;2023-03-26T03:25:04;99208.64;;;6.02;100.00
44663;BME280;30381;52.754;18.258;2023-03-26T03:27:34;99208.58;;;6.01;100.00
44663;BME280;30381;52.754;18.258;2023-03-26T03:30:05;99207.98;;;5.99;100.00
44663;BME280;30381;52.754;18.258;2023-03-26T03:32:32;99210.80;;;5.97;100.00
44663;BME280;30381;52.754;18.258;2023-03-26T03:35:00;99212.30;;;5.94;100.00
44663;BME280;30381;52.754;18.258;2023-03-26T03:37:28;99209.89;;;5.92;100.00
44663;BME280;30381;52.754;18.258;2023-03-26T03:39:56;99210.55;;;5.87;100.00
44663;BME280;30381;52.754;18.258;2023-03-26T03:42:30;99209.08;;;5.84;100.00
44663;BME280;30381;52.754;18.258;2023-03-26T03:44:57;99209.64;;;5.84;100.00
44663;BME280;30381;52.754;18.258;2023-03-26T03:47:25;99207.64;;;5.85;100.00
44663;BME280;30381;52.754;18.258;2023-03-26T03:49:51;99210.48;;;5.89;100.00
44663;BME280;30381;52.754;18.258;2023-03-26T03:52:22;99206.36;;;5.92;100.00
44663;BME280;30381;52.754;18.258;2023-03-26T03:54:49;99205.94;;;5.95;100.00
44663;BME280;30381;52.754;18.258;2023-03-26T03:57:17;99208.09;;;5.98;100.00
44663;BME280;30381;52.754;18.258;2023-03-26T03:59:44;99208.37;;;6.01;100.00
44663;BME280;30381;52.754;18.258;2023-03-26T04:02:15;99207.45;;;6.04;100.00
44663;BME280;30381;52.754;18.258;2023-03-26T04:05:07;99214.92;;;6.09;100.00
44663;BME280;30381;52.754;18.258;2023-03-26T04:07:49;99217.11;;;6.13;100.00
44663;BME280;30381;52.754;18.258;2023-03-26T04:10:16;99217.91;;;6.16;100.00
44663;BME280;30381;52.754;18.258;2023-03-26T04:12:43;99213.27;;;6.18;100.00
44663;BME280;30381;52.754;18.258;2023-03-26T04:15:11;99207.45;;;6.20;100.00
44663;BME280;30381;52.754;18.258;2023-03-26T04:17:38;99207.55;;;6.21;100.00
44663;BME280;30381;52.754;18.258;2023-03-26T04:20:10;99209.27;;;6.21;100.00
44663;BME280;30381;52.754;18.258;2023-03-26T04:22:38;99204.54;;;6.21;100.00
44663;BME280;30381;52.754;18.258;2023-03-26T04:25:08;99205.83;;;6.21;100.00
44663;BME280;30381;52.754;18.258;2023-03-26T04:27:35;99201.62;;;6.20;100.00
44663;BME280;30381;52.754;18.258;2023-03-26T04:30:06;99201.46;;;6.20;100.00
44663;BME280;30381;52.754;18.258;2023-03-26T04:32:37;99195.95;;;6.19;100.00
44663;BME280;30381;52.754;18.258;2023-03-26T04:35:06;99198.42;;;6.19;100.00
44663;BME280;30381;52.754;18.258;2023-03-26T04:37:38;99196.77;;;6.19;100.00
44663;BME280;30381;52.754;18.258;2023-03-26T04:40:10;99194.99;;;6.19;100.00
44663;BME280;30381;52.754;18.258;2023-03-26T04:42:38;99192.42;;;6.20;100.00
44663;BME280;30381;52.754;18.258;2023-03-26T04:45:14;99187.13;;;6.20;100.00
44663;BME280;30381;52.754;18.258;2023-03-26T04:47:43;99186.24;;;6.21;100.00
44663;BME280;30381;52.754;18.258;2023-03-26T04:50:11;99186.63;;;6.22;100.00
44663;BME280;30381;52.754;18.258;2023-03-26T04:52:39;99186.67;;;6.23;100.00
44663;BME280;30381;52.754;18.258;2023-03-26T04:55:23;99186.23;;;6.25;100.00
44663;BME280;30381;52.754;18.258;2023-03-26T04:57:56;99189.02;;;6.27;100.00
44663;BME280;30381;52.754;18.258;2023-03-26T05:00:31;99182.57;;;6.30;100.00
44663;BME280;30381;52.754;18.258;2023-03-26T05:02:58;99185.08;;;6.32;100.00
44663;BME280;30381;52.754;18.258;2023-03-26T05:05:28;99185.92;;;6.34;100.00
44663;BME280;30381;52.754;18.258;2023-03-26T05:07:55;99191.13;;;6.36;100.00
44663;BME280;30381;52.754;18.258;2023-03-26T05:10:22;99189.85;;;6.39;100.00
44663;BME280;30381;52.754;18.258;2023-03-26T05:12:49;99190.29;;;6.41;100.00
44663;BME280;30381;52.754;18.258;2023-03-26T05:15:16;99188.23;;;6.41;100.00
44663;BME280;30381;52.754;18.258;2023-03-26T05:17:44;99193.11;;;6.42;100.00
44663;BME280;30381;52.754;18.258;2023-03-26T05:20:19;99197.45;;;6.43;100.00
44663;BME280;30381;52.754;18.258;2023-03-26T05:22:48;99195.98;;;6.45;100.00
44663;BME280;30381;52.754;18.258;2023-03-26T05:25:16;99196.48;;;6.49;100.00
44663;BME280;30381;52.754;18.258;2023-03-26T05:27:44;99193.30;;;6.52;100.00
44663;BME280;30381;52.754;18.258;2023-03-26T05:30:17;99193.22;;;6.54;100.00
44663;BME280;30381;52.754;18.258;2023-03-26T05:32:46;99195.36;;;6.56;100.00
44663;BME280;30381;52.754;18.258;2023-03-26T05:35:19;99194.81;;;6.62;100.00
44663;BME280;30381;52.754;18.258;2023-03-26T05:37:48;99195.98;;;6.68;100.00
44663;BME280;30381;52.754;18.258;2023-03-26T05:40:17;99195.73;;;6.76;100.00
44663;BME280;30381;52.754;18.258;2023-03-26T05:42:54;99192.36;;;6.80;100.00
44663;BME280;30381;52.754;18.258;2023-03-26T05:45:21;99195.83;;;6.82;100.00
44663;BME280;30381;52.754;18.258;2023-03-26T05:47:47;99196.63;;;6.81;100.00
44663;BME280;30381;52.754;18.258;2023-03-26T05:50:19;99195.85;;;6.79;100.00
44663;BME280;30381;52.754;18.258;2023-03-26T05:52:47;99198.56;;;6.78;100.00
44663;BME280;30381;52.754;18.258;2023-03-26T05:55:13;99198.76;;;6.84;100.00
44663;BME280;30381;52.754;18.258;2023-03-26T05:57:42;99191.16;;;6.90;100.00
44663;BME280;30381;52.754;18.258;2023-03-26T06:00:10;99195.59;;;6.91;100.00
44663;BME280;30381;52.754;18.258;2023-03-26T06:02:38;99199.52;;;6.91;100.00
44663;BME280;30381;52.754;18.258;2023-03-26T06:05:08;99201.62;;;6.95;100.00
44663;BME280;30381;52.754;18.258;2023-03-26T06:07:35;99204.45;;;7.05;100.00
44663;BME280;30381;52.754;18.258;2023-03-26T06:10:02;99207.73;;;7.16;100.00
44663;BME280;30381;52.754;18.258;2023-03-26T06:12:29;99202.55;;;7.22;100.00
44663;BME280;30381;52.754;18.258;2023-03-26T06:14:56;99198.91;;;7.31;100.00
44663;BME280;30381;52.754;18.258;2023-03-26T06:17:23;99199.85;;;7.42;100.00
44663;BME280;30381;52.754;18.258;2023-03-26T06:19:49;99201.30;;;7.46;100.00
44663;BME280;30381;52.754;18.258;2023-03-26T06:22:16;99199.48;;;7.47;100.00
44663;BME280;30381;52.754;18.258;2023-03-26T06:24:44;99201.63;;;7.46;100.00
44663;BME280;30381;52.754;18.258;2023-03-26T06:27:10;99205.75;;;7.49;100.00
44663;BME280;30381;52.754;18.258;2023-03-26T06:29:37;99208.95;;;7.55;100.00
44663;BME280;30381;52.754;18.258;2023-03-26T06:32:05;99207.02;;;7.60;100.00
44663;BME280;30381;52.754;18.258;2023-03-26T06:34:32;99210.29;;;7.62;100.00
44663;BME280;30381;52.754;18.258;2023-03-26T06:36:59;99210.08;;;7.59;100.00
44663;BME280;30381;52.754;18.258;2023-03-26T06:39:26;99216.58;;;7.59;100.00
44663;BME280;30381;52.754;18.258;2023-03-26T06:41:53;99213.23;;;7.62;100.00
44663;BME280;30381;52.754;18.258;2023-03-26T06:44:21;99213.35;;;7.71;100.00
44663;BME280;30381;52.754;18.258;2023-03-26T06:46:48;99215.18;;;7.80;100.00
44663;BME280;30381;52.754;18.258;2023-03-26T06:49:15;99211.86;;;7.83;100.00
44663;BME280;30381;52.754;18.258;2023-03-26T06:51:42;99211.39;;;7.83;100.00
44663;BME280;30381;52.754;18.258;2023-03-26T06:54:09;99216.00;;;7.81;100.00
44663;BME280;30381;52.754;18.258;2023-03-26T06:56:36;99216.09;;;7.85;100.00
44663;BME280;30381;52.754;18.258;2023-03-26T06:59:02;99216.72;;;7.97;100.00
44663;BME280;30381;52.754;18.258;2023-03-26T07:01:29;99217.67;;;8.11;100.00
44663;BME280;30381;52.754;18.258;2023-03-26T07:03:56;99212.44;;;8.21;100.00
44663;BME280;30381;52.754;18.258;2023-03-26T07:06:24;99212.19;;;8.31;100.00
44663;BME280;30381;52.754;18.258;2023-03-26T07:08:52;99213.05;;;8.40;100.00
44663;BME280;30381;52.754;18.258;2023-03-26T07:11:25;99216.77;;;8.52;100.00
44663;BME280;30381;52.754;18.258;2023-03-26T07:13:52;99215.95;;;8.69;100.00
44663;BME280;30381;52.754;18.258;2023-03-26T07:16:23;99213.82;;;8.87;100.00
44663;BME280;30381;52.754;18.258;2023-03-26T07:18:50;99215.56;;;9.03;100.00
44663;BME280;30381;52.754;18.258;2023-03-26T07:21:20;99216.61;;;9.09;100.00
44663;BME280;30381;52.754;18.258;2023-03-26T07:23:48;99216.55;;;9.17;100.00
44663;BME280;30381;52.754;18.258;2023-03-26T07:26:55;99219.14;;;9.25;100.00
44663;BME280;30381;52.754;18.258;2023-03-26T07:29:36;99219.59;;;9.37;100.00
44663;BME280;30381;52.754;18.258;2023-03-26T07:32:39;99220.43;;;9.32;100.00
44663;BME280;30381;52.754;18.258;2023-03-26T07:35:29;99229.31;;;9.15;100.00
44663;BME280;30381;52.754;18.258;2023-03-26T07:38:08;99225.23;;;8.93;100.00
44663;BME280;30381;52.754;18.258;2023-03-26T07:45:58;99234.05;;;8.51;100.00
44663;BME280;30381;52.754;18.258;2023-03-26T07:48:39;99235.41;;;8.52;100.00
44663;BME280;30381;52.754;18.258;2023-03-26T07:51:08;99229.88;;;8.74;100.00
44663;BME280;30381;52.754;18.258;2023-03-26T07:53:35;99233.15;;;9.07;100.00
44663;BME280;30381;52.754;18.258;2023-03-26T07:56:28;99232.54;;;9.46;100.00
44663;BME280;30381;52.754;18.258;2023-03-26T07:59:18;99235.65;;;9.92;100.00
44663;BME280;30381;52.754;18.258;2023-03-26T08:07:41;99237.16;;;10.30;100.00
44663;BME280;30381;52.754;18.258;2023-03-26T08:10:21;99237.05;;;10.29;100.00
44663;BME280;30381;52.754;18.258;2023-03-26T08:21:46;99245.00;;;10.08;100.00
44663;BME280;30381;52.754;18.258;2023-03-26T08:27:23;99244.95;;;9.77;100.00
44663;BME280;30381;52.754;18.258;2023-03-26T08:32:44;99246.48;;;9.41;100.00
44663;BME280;30381;52.754;18.258;2023-03-26T08:35:14;99248.34;;;9.27;100.00
44663;BME280;30381;52.754;18.258;2023-03-26T08:37:41;99248.02;;;9.19;100.00
44663;BME280;30381;52.754;18.258;2023-03-26T08:40:11;99251.72;;;9.09;100.00
44663;BME280;30381;52.754;18.258;2023-03-26T08:57:19;99268.40;;;8.66;100.00
44663;BME280;30381;52.754;18.258;2023-03-26T09:03:06;99271.54;;;8.98;100.00
44663;BME280;30381;52.754;18.258;2023-03-26T09:08:53;99272.17;;;9.18;100.00
44663;BME280;30381;52.754;18.258;2023-03-26T09:11:49;99272.14;;;9.29;100.00
44663;BME280;30381;52.754;18.258;2023-03-26T09:20:06;99272.14;;;9.14;100.00
44663;BME280;30381;52.754;18.258;2023-03-26T09:27:01;99267.28;;;9.96;100.00
44663;BME280;30381;52.754;18.258;2023-03-26T09:36:10;99266.85;;;10.93;100.00
44663;BME280;30381;52.754;18.258;2023-03-26T09:42:08;99272.04;;;11.17;100.00
44663;BME280;30381;52.754;18.258;2023-03-26T09:51:27;99280.59;;;11.29;100.00
44663;BME280;30381;52.754;18.258;2023-03-26T10:00:47;99285.52;;;11.48;100.00
44663;BME280;30381;52.754;18.258;2023-03-26T10:04:05;99287.27;;;11.43;100.00
44663;BME280;30381;52.754;18.258;2023-03-26T11:38:33;99271.52;;;12.38;100.00
44663;BME280;30381;52.754;18.258;2023-03-26T11:57:28;99254.36;;;13.11;100.00
44663;BME280;30381;52.754;18.258;2023-03-26T12:03:55;99266.93;;;12.35;100.00
44663;BME280;30381;52.754;18.258;2023-03-26T12:06:49;99269.10;;;11.89;100.00
44663;BME280;30381;52.754;18.258;2023-03-26T12:11:41;99258.89;;;11.53;100.00
44663;BME280;30381;52.754;18.258;2023-03-26T12:14:21;99262.46;;;11.50;100.00
44663;BME280;30381;52.754;18.258;2023-03-26T12:17:10;99257.64;;;11.52;100.00
44663;BME280;30381;52.754;18.258;2023-03-26T12:23:32;99250.79;;;12.11;100.00
44663;BME280;30381;52.754;18.258;2023-03-26T12:26:13;99248.15;;;12.48;100.00
44663;BME280;30381;52.754;18.258;2023-03-26T12:29:14;99240.34;;;12.79;100.00
44663;BME280;30381;52.754;18.258;2023-03-26T12:32:12;99238.30;;;12.90;100.00
44663;BME280;30381;52.754;18.258;2023-03-26T12:35:09;99239.59;;;12.86;100.00
44663;BME280;30381;52.754;18.258;2023-03-26T12:38:22;99237.06;;;12.61;100.00
44663;BME280;30381;52.754;18.258;2023-03-26T12:41:16;99237.11;;;12.44;100.00
44663;BME280;30381;52.754;18.258;2023-03-26T12:44:34;99244.03;;;12.31;100.00
44663;BME280;30381;52.754;18.258;2023-03-26T12:47:31;99249.88;;;12.22;100.00
44663;BME280;30381;52.754;18.258;2023-03-26T12:49:59;99249.60;;;12.24;100.00
44663;BME280;30381;52.754;18.258;2023-03-26T12:53:10;99247.73;;;12.36;100.00
44663;BME280;30381;52.754;18.258;2023-03-26T12:56:27;99244.94;;;12.50;100.00
44663;BME280;30381;52.754;18.258;2023-03-26T12:59:28;99241.83;;;12.69;100.00
44663;BME280;30381;52.754;18.258;2023-03-26T13:02:13;99240.93;;;12.87;100.00
44663;BME280;30381;52.754;18.258;2023-03-26T13:10:56;99240.52;;;13.04;100.00
44663;BME280;30381;52.754;18.258;2023-03-26T13:16:27;99241.39;;;13.03;100.00
44663;BME280;30381;52.754;18.258;2023-03-26T13:25:55;99235.83;;;13.00;100.00
44663;BME280;30381;52.754;18.258;2023-03-26T13:34:43;99239.13;;;12.60;100.00
44663;BME280;30381;52.754;18.258;2023-03-26T13:48:24;99233.53;;;13.08;100.00
44663;BME280;30381;52.754;18.258;2023-03-26T14:13:32;99231.17;;;13.04;100.00
44663;BME280;30381;52.754;18.258;2023-03-26T14:16:53;99230.05;;;13.14;100.00
44663;BME280;30381;52.754;18.258;2023-03-26T14:41:28;99230.46;;;12.33;100.00
44663;BME280;30381;52.754;18.258;2023-03-26T14:44:38;99230.33;;;12.20;100.00
44663;BME280;30381;52.754;18.258;2023-03-26T14:47:49;99230.55;;;12.20;100.00
44663;BME280;30381;52.754;18.258;2023-03-26T14:54:05;99217.46;;;12.55;100.00
44663;BME280;30381;52.754;18.258;2023-03-26T15:54:31;99235.12;;;11.26;100.00
44663;BME280;30381;52.754;18.258;2023-03-26T15:57:39;99238.91;;;11.22;100.00
44663;BME280;30381;52.754;18.258;2023-03-26T16:00:30;99233.31;;;11.09;100.00
44663;BME280;30381;52.754;18.258;2023-03-26T16:06:37;99235.38;;;10.89;100.00
44663;BME280;30381;52.754;18.258;2023-03-26T16:11:57;99238.08;;;10.87;100.00
44663;BME280;30381;52.754;18.258;2023-03-26T16:14:44;99243.92;;;10.78;100.00
44663;BME280;30381;52.754;18.258;2023-03-26T16:18:03;99245.27;;;10.67;100.00
44663;BME280;30381;52.754;18.258;2023-03-26T16:21:02;99243.80;;;10.58;100.00
44663;BME280;30381;52.754;18.258;2023-03-26T16:23:51;99243.47;;;10.50;100.00
44663;BME280;30381;52.754;18.258;2023-03-26T16:29:27;99247.23;;;10.38;100.00
44663;BME280;30381;52.754;18.258;2023-03-26T16:35:59;99248.94;;;10.31;100.00
44663;BME280;30381;52.754;18.258;2023-03-26T16:38:14;99252.10;;;10.25;100.00
44663;BME280;30381;52.754;18.258;2023-03-26T16:41:15;99255.44;;;10.18;100.00
44663;BME280;30381;52.754;18.258;2023-03-26T17:00:46;99263.67;;;9.22;100.00
44663;BME280;30381;52.754;18.258;2023-03-26T17:03:32;99266.60;;;9.09;100.00
44663;BME280;30381;52.754;18.258;2023-03-26T17:09:30;99266.40;;;8.76;100.00
44663;BME280;30381;52.754;18.258;2023-03-26T17:12:21;99271.64;;;8.62;100.00
44663;BME280;30381;52.754;18.258;2023-03-26T17:21:50;99283.34;;;8.17;100.00
44663;BME280;30381;52.754;18.258;2023-03-26T17:25:12;99283.73;;;8.05;100.00
44663;BME280;30381;52.754;18.258;2023-03-26T17:28:30;99285.61;;;7.92;100.00
44663;BME280;30381;52.754;18.258;2023-03-26T18:43:34;99289.15;;;5.62;100.00
44663;BME280;30381;52.754;18.258;2023-03-26T18:47:11;99289.15;;;5.55;100.00
